createdAt,value
2018-06-11T00:00:40.780Z,0
2018-06-11T00:01:42.174Z,0
2018-06-11T00:02:43.566Z,0
2018-06-11T00:03:44.958Z,0
2018-06-11T00:04:46.349Z,0
2018-06-11T00:05:47.746Z,0
2018-06-11T00:06:49.137Z,0
2018-06-11T00:07:50.533Z,0
2018-06-11T00:08:51.926Z,0
2018-06-11T00:09:53.323Z,0
2018-06-11T00:10:54.708Z,0
2018-06-11T00:11:56.102Z,0
2018-06-11T00:12:57.494Z,0
2018-06-11T00:13:58.888Z,0
2018-06-11T00:15:00.285Z,0
2018-06-11T00:16:01.679Z,0
2018-06-11T00:17:03.081Z,0
2018-06-11T00:18:04.472Z,0
2018-06-11T00:19:05.863Z,0
2018-06-11T00:20:07.254Z,0
2018-06-11T00:21:08.648Z,0
2018-06-11T00:22:10.060Z,0
2018-06-11T00:23:11.438Z,0
2018-06-11T00:24:12.832Z,0
2018-06-11T00:25:14.224Z,0
2018-06-11T00:26:15.615Z,0
2018-06-11T00:27:17.003Z,0
2018-06-11T00:28:18.399Z,0
2018-06-11T00:29:19.795Z,0
2018-06-11T00:30:21.191Z,0
2018-06-11T00:31:22.584Z,0
2018-06-11T00:32:23.977Z,0
2018-06-11T00:33:25.366Z,0
2018-06-11T00:34:26.758Z,0
2018-06-11T00:35:28.208Z,0
2018-06-11T00:36:29.612Z,0
2018-06-11T00:37:31.005Z,0
2018-06-11T00:38:32.401Z,0
2018-06-11T00:39:33.945Z,0
2018-06-11T00:40:35.343Z,0
2018-06-11T00:41:36.733Z,0
2018-06-11T00:42:38.126Z,0
2018-06-11T00:43:39.518Z,0
2018-06-11T00:44:40.911Z,0
2018-06-11T00:45:42.309Z,0
2018-06-11T00:46:43.699Z,0
2018-06-11T00:47:45.090Z,0
2018-06-11T00:48:46.486Z,0
2018-06-11T00:49:47.897Z,0
2018-06-11T00:50:49.296Z,0
2018-06-11T00:51:50.686Z,0
2018-06-11T00:52:52.083Z,0
2018-06-11T00:53:53.475Z,0
2018-06-11T00:54:54.868Z,0
2018-06-11T00:55:56.261Z,0
2018-06-11T00:56:57.653Z,0
2018-06-11T00:57:59.055Z,0
2018-06-11T00:59:00.438Z,0
2018-06-11T01:00:01.833Z,0
2018-06-11T01:01:03.235Z,0
2018-06-11T01:02:04.619Z,0
2018-06-11T01:03:06.008Z,0
2018-06-11T01:04:07.400Z,0
2018-06-11T01:05:08.794Z,0
2018-06-11T01:06:10.188Z,0
2018-06-11T01:07:11.583Z,0
2018-06-11T01:08:12.971Z,0
2018-06-11T01:09:14.364Z,0
2018-06-11T01:10:15.762Z,0
2018-06-11T01:11:17.154Z,0
2018-06-11T01:12:18.545Z,0
2018-06-11T01:13:19.949Z,0
2018-06-11T01:14:21.334Z,0
2018-06-11T01:15:22.728Z,0
2018-06-11T01:16:24.115Z,0
2018-06-11T01:17:25.510Z,0
2018-06-11T01:18:26.902Z,0
2018-06-11T01:19:28.304Z,0
2018-06-11T01:20:29.704Z,0
2018-06-11T01:21:31.099Z,0
2018-06-11T01:22:32.500Z,0
2018-06-11T01:23:33.884Z,0
2018-06-11T01:24:35.275Z,0
2018-06-11T01:25:36.668Z,0
2018-06-11T01:26:38.062Z,0
2018-06-11T01:27:39.454Z,0
2018-06-11T01:28:40.850Z,0
2018-06-11T01:29:42.242Z,0
2018-06-11T01:30:43.632Z,0
2018-06-11T01:31:45.022Z,0
2018-06-11T01:32:46.415Z,0
2018-06-11T01:33:47.812Z,0
2018-06-11T01:34:49.213Z,0
2018-06-11T01:35:50.607Z,0
2018-06-11T01:36:51.998Z,0
2018-06-11T01:37:53.388Z,0
2018-06-11T01:38:54.780Z,0
2018-06-11T01:39:56.171Z,0
2018-06-11T01:40:57.563Z,0
2018-06-11T01:41:58.955Z,0
2018-06-11T01:43:00.352Z,0
2018-06-11T01:44:01.744Z,0
2018-06-11T01:45:03.133Z,0
2018-06-11T01:46:04.526Z,0
2018-06-11T01:47:05.916Z,0
2018-06-11T01:48:07.314Z,0
2018-06-11T01:49:08.705Z,0
2018-06-11T01:50:10.106Z,0
2018-06-11T01:51:11.495Z,0
2018-06-11T01:52:12.908Z,0
2018-06-11T01:53:14.302Z,0
2018-06-11T01:54:15.691Z,0
2018-06-11T01:55:17.090Z,0
2018-06-11T01:56:18.482Z,0
2018-06-11T01:57:19.872Z,0
2018-06-11T01:58:21.268Z,0
2018-06-11T01:59:22.657Z,0
2018-06-11T02:00:24.054Z,0
2018-06-11T02:01:25.446Z,0
2018-06-11T02:02:26.837Z,0
2018-06-11T02:03:28.267Z,0
2018-06-11T02:04:29.817Z,0
2018-06-11T02:05:31.208Z,0
2018-06-11T02:06:32.609Z,0
2018-06-11T02:07:33.998Z,0
2018-06-11T02:08:35.391Z,0
2018-06-11T02:09:36.783Z,0
2018-06-11T02:10:38.181Z,0
2018-06-11T02:11:39.572Z,0
2018-06-11T02:12:40.962Z,0
2018-06-11T02:13:42.353Z,0
2018-06-11T02:14:43.747Z,0
2018-06-11T02:15:45.136Z,0
2018-06-11T02:16:46.530Z,0
2018-06-11T02:17:47.926Z,0
2018-06-11T02:18:49.317Z,0
2018-06-11T02:19:50.709Z,0
2018-06-11T02:20:52.107Z,0
2018-06-11T02:21:53.510Z,0
2018-06-11T02:22:54.885Z,0
2018-06-11T02:23:56.274Z,0
2018-06-11T02:24:57.673Z,0
2018-06-11T02:25:59.070Z,0
2018-06-11T02:27:00.464Z,0
2018-06-11T02:28:01.860Z,0
2018-06-11T02:29:03.248Z,0
2018-06-11T02:30:04.643Z,0
2018-06-11T02:31:06.032Z,0
2018-06-11T02:32:07.427Z,0
2018-06-11T02:33:08.820Z,0
2018-06-11T02:34:10.210Z,0
2018-06-11T02:35:11.604Z,0
2018-06-11T02:36:13.008Z,0
2018-06-11T02:37:14.403Z,0
2018-06-11T02:38:15.793Z,0
2018-06-11T02:39:17.188Z,0
2018-06-11T02:40:18.578Z,0
2018-06-11T02:41:19.969Z,0
2018-06-11T02:42:21.357Z,0
2018-06-11T02:43:22.754Z,0
2018-06-11T02:44:24.149Z,0
2018-06-11T02:45:25.540Z,0
2018-06-11T02:46:26.940Z,0
2018-06-11T02:47:28.337Z,0
2018-06-11T02:48:29.794Z,0
2018-06-11T02:49:31.184Z,0
2018-06-11T02:50:32.577Z,0
2018-06-11T02:51:33.969Z,0
2018-06-11T02:52:35.363Z,0
2018-06-11T02:53:36.757Z,0
2018-06-11T02:54:38.152Z,0
2018-06-11T02:55:39.545Z,0
2018-06-11T02:56:40.936Z,0
2018-06-11T02:57:42.330Z,0
2018-06-11T02:58:43.726Z,0
2018-06-11T02:59:45.120Z,0
2018-06-11T03:00:46.512Z,0
2018-06-11T03:01:47.919Z,0
2018-06-11T03:02:49.321Z,0
2018-06-11T03:03:50.707Z,0
2018-06-11T03:04:52.102Z,0
2018-06-11T03:05:53.502Z,0
2018-06-11T03:06:54.895Z,0
2018-06-11T03:07:56.288Z,0
2018-06-11T03:08:57.685Z,0
2018-06-11T03:09:59.088Z,0
2018-06-11T03:11:00.473Z,0
2018-06-11T03:12:01.887Z,0
2018-06-11T03:13:03.278Z,0
2018-06-11T03:14:04.670Z,0
2018-06-11T03:15:06.065Z,0
2018-06-11T03:16:07.473Z,0
2018-06-11T03:17:08.855Z,0
2018-06-11T03:18:10.249Z,0
2018-06-11T03:19:11.644Z,0
2018-06-11T03:20:13.038Z,0
2018-06-11T03:21:14.452Z,0
2018-06-11T03:22:15.848Z,0
2018-06-11T03:23:17.242Z,0
2018-06-11T03:24:18.637Z,0
2018-06-11T03:25:20.030Z,0
2018-06-11T03:26:21.426Z,0
2018-06-11T03:27:22.815Z,0
2018-06-11T03:28:24.211Z,0
2018-06-11T03:29:25.607Z,0
2018-06-11T03:30:27.001Z,0
2018-06-11T03:31:28.499Z,0
2018-06-11T03:32:29.903Z,5
2018-06-11T03:33:31.298Z,5
2018-06-11T03:34:32.692Z,5
2018-06-11T03:35:34.089Z,5
2018-06-11T03:36:35.484Z,5
2018-06-11T03:37:36.883Z,5
2018-06-11T03:38:38.280Z,5
2018-06-11T03:39:39.672Z,5
2018-06-11T03:40:41.068Z,5
2018-06-11T03:41:42.469Z,5
2018-06-11T03:42:43.864Z,5
2018-06-11T03:43:45.260Z,5
2018-06-11T03:44:46.657Z,5
2018-06-11T03:45:48.061Z,5
2018-06-11T03:46:49.455Z,5
2018-06-11T03:47:50.850Z,11
2018-06-11T03:48:52.246Z,11
2018-06-11T03:49:53.646Z,11
2018-06-11T03:50:55.045Z,11
2018-06-11T03:51:56.444Z,11
2018-06-11T03:52:57.837Z,11
2018-06-11T03:53:59.234Z,11
2018-06-11T03:55:00.628Z,11
2018-06-11T03:56:02.029Z,11
2018-06-11T03:57:03.427Z,11
2018-06-11T03:58:04.826Z,11
2018-06-11T03:59:06.223Z,11
2018-06-11T04:00:07.620Z,16
2018-06-11T04:01:09.017Z,16
2018-06-11T04:02:10.417Z,16
2018-06-11T04:03:11.811Z,16
2018-06-11T04:04:13.208Z,16
2018-06-11T04:05:14.607Z,16
2018-06-11T04:06:16.008Z,16
2018-06-11T04:07:17.402Z,16
2018-06-11T04:08:18.795Z,16
2018-06-11T04:09:20.189Z,16
2018-06-11T04:10:21.585Z,16
2018-06-11T04:11:22.984Z,22
2018-06-11T04:12:24.383Z,22
2018-06-11T04:13:25.781Z,22
2018-06-11T04:14:27.177Z,22
2018-06-11T04:15:28.598Z,22
2018-06-11T04:16:30.102Z,22
2018-06-11T04:17:31.500Z,22
2018-06-11T04:18:32.897Z,22
2018-06-11T04:19:34.314Z,22
2018-06-11T04:20:35.746Z,22
2018-06-11T04:21:37.141Z,22
2018-06-11T04:22:38.551Z,28
2018-06-11T04:23:39.955Z,28
2018-06-11T04:24:41.342Z,28
2018-06-11T04:25:42.739Z,28
2018-06-11T04:26:44.136Z,28
2018-06-11T04:27:45.533Z,28
2018-06-11T04:28:46.928Z,28
2018-06-11T04:29:48.322Z,28
2018-06-11T04:30:49.716Z,28
2018-06-11T04:31:51.119Z,28
2018-06-11T04:32:52.519Z,28
2018-06-11T04:33:53.916Z,28
2018-06-11T04:34:55.312Z,28
2018-06-11T04:35:56.708Z,22
2018-06-11T04:36:58.101Z,28
2018-06-11T04:37:59.499Z,28
2018-06-11T04:39:00.894Z,28
2018-06-11T04:40:02.312Z,28
2018-06-11T04:41:03.705Z,28
2018-06-11T04:42:05.109Z,33
2018-06-11T04:43:06.503Z,33
2018-06-11T04:44:07.899Z,33
2018-06-11T04:45:09.298Z,33
2018-06-11T04:46:10.693Z,28
2018-06-11T04:47:12.094Z,28
2018-06-11T04:48:13.488Z,28
2018-06-11T04:49:14.886Z,28
2018-06-11T04:50:16.280Z,28
2018-06-11T04:51:17.675Z,28
2018-06-11T04:52:19.077Z,28
2018-06-11T04:53:20.472Z,22
2018-06-11T04:54:21.870Z,22
2018-06-11T04:55:23.273Z,28
2018-06-11T04:56:24.671Z,28
2018-06-11T04:57:26.064Z,28
2018-06-11T04:58:27.458Z,33
2018-06-11T04:59:28.873Z,33
2018-06-11T05:00:30.295Z,33
2018-06-11T05:01:31.689Z,39
2018-06-11T05:02:33.087Z,39
2018-06-11T05:03:34.491Z,39
2018-06-11T05:04:35.887Z,39
2018-06-11T05:05:37.285Z,45
2018-06-11T05:06:38.681Z,45
2018-06-11T05:07:40.078Z,45
2018-06-11T05:08:41.475Z,50
2018-06-11T05:09:42.875Z,50
2018-06-11T05:10:44.275Z,50
2018-06-11T05:11:45.671Z,50
2018-06-11T05:12:47.065Z,50
2018-06-11T05:13:48.463Z,50
2018-06-11T05:14:49.860Z,50
2018-06-11T05:15:51.259Z,50
2018-06-11T05:16:52.662Z,50
2018-06-11T05:17:54.056Z,50
2018-06-11T05:18:55.460Z,50
2018-06-11T05:19:56.842Z,56
2018-06-11T05:20:58.238Z,56
2018-06-11T05:21:59.652Z,50
2018-06-11T05:23:01.049Z,50
2018-06-11T05:24:02.450Z,56
2018-06-11T05:25:03.848Z,56
2018-06-11T05:26:05.241Z,56
2018-06-11T05:27:06.701Z,56
2018-06-11T05:28:08.107Z,56
2018-06-11T05:29:09.503Z,61
2018-06-11T05:30:10.902Z,61
2018-06-11T05:31:12.299Z,67
2018-06-11T05:32:13.698Z,67
2018-06-11T05:33:15.092Z,67
2018-06-11T05:34:16.488Z,67
2018-06-11T05:35:17.881Z,73
2018-06-11T05:36:19.275Z,73
2018-06-11T05:37:20.672Z,78
2018-06-11T05:38:22.072Z,78
2018-06-11T05:39:23.465Z,78
2018-06-11T05:40:24.913Z,78
2018-06-11T05:41:26.256Z,78
2018-06-11T05:42:27.653Z,78
2018-06-11T05:43:29.089Z,78
2018-06-11T05:44:30.529Z,78
2018-06-11T05:45:31.928Z,84
2018-06-11T05:46:33.321Z,84
2018-06-11T05:47:34.717Z,84
2018-06-11T05:48:36.115Z,78
2018-06-11T05:49:37.511Z,78
2018-06-11T05:50:38.906Z,78
2018-06-11T05:51:40.304Z,84
2018-06-11T05:52:41.706Z,84
2018-06-11T05:53:43.101Z,84
2018-06-11T05:54:44.504Z,84
2018-06-11T05:55:45.905Z,84
2018-06-11T05:56:47.296Z,84
2018-06-11T05:57:48.690Z,84
2018-06-11T05:58:50.086Z,84
2018-06-11T05:59:51.482Z,84
2018-06-11T06:00:52.884Z,78
2018-06-11T06:01:54.278Z,78
2018-06-11T06:02:55.672Z,78
2018-06-11T06:03:57.072Z,84
2018-06-11T06:04:58.467Z,84
2018-06-11T06:05:59.862Z,84
2018-06-11T06:07:01.262Z,84
2018-06-11T06:08:02.663Z,84
2018-06-11T06:09:04.060Z,84
2018-06-11T06:10:05.458Z,84
2018-06-11T06:11:06.856Z,90
2018-06-11T06:12:08.254Z,90
2018-06-11T06:13:09.654Z,90
2018-06-11T06:14:11.059Z,84
2018-06-11T06:15:12.451Z,90
2018-06-11T06:16:13.842Z,90
2018-06-11T06:17:15.241Z,95
2018-06-11T06:18:16.643Z,95
2018-06-11T06:19:18.035Z,95
2018-06-11T06:20:19.436Z,101
2018-06-11T06:21:20.835Z,101
2018-06-11T06:22:22.244Z,101
2018-06-11T06:23:23.642Z,101
2018-06-11T06:24:25.038Z,101
2018-06-11T06:25:26.435Z,106
2018-06-11T06:26:27.832Z,106
2018-06-11T06:27:29.395Z,112
2018-06-11T06:28:30.811Z,112
2018-06-11T06:29:32.208Z,112
2018-06-11T06:30:33.605Z,112
2018-06-11T06:31:35.002Z,118
2018-06-11T06:32:36.399Z,118
2018-06-11T06:33:37.797Z,118
2018-06-11T06:34:39.217Z,118
2018-06-11T06:35:40.595Z,123
2018-06-11T06:36:41.998Z,129
2018-06-11T06:37:43.395Z,129
2018-06-11T06:38:44.790Z,129
2018-06-11T06:39:46.187Z,129
2018-06-11T06:40:47.586Z,135
2018-06-11T06:41:48.983Z,135
2018-06-11T06:42:50.383Z,135
2018-06-11T06:43:51.779Z,140
2018-06-11T06:44:53.178Z,146
2018-06-11T06:45:54.573Z,146
2018-06-11T06:46:55.981Z,151
2018-06-11T06:47:57.365Z,151
2018-06-11T06:48:58.774Z,151
2018-06-11T06:50:00.174Z,146
2018-06-11T06:51:01.572Z,146
2018-06-11T06:52:03.000Z,140
2018-06-11T06:53:04.397Z,146
2018-06-11T06:54:05.811Z,151
2018-06-11T06:55:07.204Z,151
2018-06-11T06:56:08.604Z,157
2018-06-11T06:57:10.010Z,163
2018-06-11T06:58:11.406Z,185
2018-06-11T06:59:12.803Z,180
2018-06-11T07:00:14.199Z,185
2018-06-11T07:01:15.595Z,196
2018-06-11T07:02:17.042Z,196
2018-06-11T07:03:18.453Z,202
2018-06-11T07:04:19.857Z,196
2018-06-11T07:05:21.247Z,196
2018-06-11T07:06:22.642Z,191
2018-06-11T07:07:24.037Z,196
2018-06-11T07:08:25.435Z,196
2018-06-11T07:09:26.832Z,185
2018-06-11T07:10:28.246Z,185
2018-06-11T07:11:29.721Z,185
2018-06-11T07:12:31.118Z,180
2018-06-11T07:13:32.519Z,180
2018-06-11T07:14:33.911Z,180
2018-06-11T07:15:35.310Z,185
2018-06-11T07:16:36.708Z,174
2018-06-11T07:17:38.111Z,168
2018-06-11T07:18:39.513Z,174
2018-06-11T07:19:40.912Z,174
2018-06-11T07:20:42.315Z,174
2018-06-11T07:21:43.709Z,180
2018-06-11T07:22:45.108Z,180
2018-06-11T07:23:46.512Z,174
2018-06-11T07:24:47.904Z,174
2018-06-11T07:25:49.311Z,180
2018-06-11T07:26:50.717Z,168
2018-06-11T07:27:52.114Z,168
2018-06-11T07:28:53.507Z,163
2018-06-11T07:29:54.913Z,163
2018-06-11T07:30:56.313Z,174
2018-06-11T07:31:57.717Z,185
2018-06-11T07:32:59.119Z,191
2018-06-11T07:34:00.524Z,191
2018-06-11T07:35:01.982Z,191
2018-06-11T07:36:03.316Z,185
2018-06-11T07:37:04.717Z,180
2018-06-11T07:38:06.116Z,180
2018-06-11T07:39:07.516Z,191
2018-06-11T07:40:08.919Z,202
2018-06-11T07:41:10.317Z,202
2018-06-11T07:42:11.714Z,202
2018-06-11T07:43:13.112Z,208
2018-06-11T07:44:14.510Z,230
2018-06-11T07:45:15.910Z,230
2018-06-11T07:46:17.310Z,230
2018-06-11T07:47:18.713Z,230
2018-06-11T07:48:20.111Z,236
2018-06-11T07:49:21.509Z,253
2018-06-11T07:50:22.907Z,236
2018-06-11T07:51:24.308Z,219
2018-06-11T07:52:25.705Z,208
2018-06-11T07:53:27.122Z,196
2018-06-11T07:54:28.618Z,180
2018-06-11T07:55:30.028Z,163
2018-06-11T07:56:31.419Z,180
2018-06-11T07:57:32.820Z,191
2018-06-11T07:58:34.224Z,168
2018-06-11T07:59:35.618Z,151
2018-06-11T08:00:37.015Z,140
2018-06-11T08:01:38.418Z,140
2018-06-11T08:02:39.821Z,151
2018-06-11T08:03:41.221Z,157
2018-06-11T08:04:42.621Z,163
2018-06-11T08:05:44.016Z,168
2018-06-11T08:06:45.414Z,174
2018-06-11T08:07:46.816Z,180
2018-06-11T08:08:48.216Z,196
2018-06-11T08:09:49.617Z,225
2018-06-11T08:10:51.015Z,236
2018-06-11T08:11:52.412Z,247
2018-06-11T08:12:53.814Z,247
2018-06-11T08:13:55.211Z,253
2018-06-11T08:14:56.609Z,258
2018-06-11T08:15:58.008Z,258
2018-06-11T08:16:59.408Z,247
2018-06-11T08:18:00.811Z,236
2018-06-11T08:19:02.209Z,230
2018-06-11T08:20:03.639Z,230
2018-06-11T08:21:05.011Z,236
2018-06-11T08:22:06.414Z,236
2018-06-11T08:23:07.810Z,241
2018-06-11T08:24:09.212Z,241
2018-06-11T08:25:10.610Z,241
2018-06-11T08:26:12.009Z,225
2018-06-11T08:27:13.407Z,213
2018-06-11T08:28:14.802Z,208
2018-06-11T08:29:16.207Z,208
2018-06-11T08:30:17.608Z,213
2018-06-11T08:31:19.006Z,219
2018-06-11T08:32:20.407Z,247
2018-06-11T08:33:21.808Z,258
2018-06-11T08:34:23.208Z,275
2018-06-11T08:35:24.610Z,292
2018-06-11T08:36:26.018Z,354
2018-06-11T08:37:27.467Z,331
2018-06-11T08:38:28.872Z,331
2018-06-11T08:39:30.267Z,298
2018-06-11T08:40:31.659Z,286
2018-06-11T08:41:33.073Z,286
2018-06-11T08:42:34.464Z,264
2018-06-11T08:43:35.865Z,264
2018-06-11T08:44:37.263Z,270
2018-06-11T08:45:38.666Z,275
2018-06-11T08:46:40.069Z,281
2018-06-11T08:47:41.461Z,281
2018-06-11T08:48:42.862Z,286
2018-06-11T08:49:44.263Z,286
2018-06-11T08:50:45.661Z,281
2018-06-11T08:51:47.061Z,270
2018-06-11T08:52:48.463Z,241
2018-06-11T08:53:49.860Z,213
2018-06-11T08:54:51.260Z,202
2018-06-11T08:55:52.658Z,191
2018-06-11T08:56:54.058Z,185
2018-06-11T08:57:55.458Z,180
2018-06-11T08:58:56.859Z,180
2018-06-11T08:59:58.299Z,174
2018-06-11T09:00:59.655Z,174
2018-06-11T09:02:01.064Z,168
2018-06-11T09:03:02.463Z,168
2018-06-11T09:04:03.862Z,157
2018-06-11T09:05:05.266Z,157
2018-06-11T09:06:06.663Z,157
2018-06-11T09:07:08.095Z,157
2018-06-11T09:08:09.465Z,157
2018-06-11T09:09:10.865Z,163
2018-06-11T09:10:12.263Z,163
2018-06-11T09:11:13.668Z,163
2018-06-11T09:12:15.064Z,168
2018-06-11T09:13:16.465Z,174
2018-06-11T09:14:17.870Z,180
2018-06-11T09:15:19.270Z,191
2018-06-11T09:16:20.669Z,208
2018-06-11T09:17:22.068Z,225
2018-06-11T09:18:23.624Z,230
2018-06-11T09:19:24.867Z,236
2018-06-11T09:20:26.335Z,241
2018-06-11T09:21:27.715Z,241
2018-06-11T09:22:29.112Z,241
2018-06-11T09:23:30.512Z,241
2018-06-11T09:24:31.921Z,236
2018-06-11T09:25:33.323Z,230
2018-06-11T09:26:34.726Z,230
2018-06-11T09:27:36.125Z,236
2018-06-11T09:28:37.526Z,241
2018-06-11T09:29:38.928Z,247
2018-06-11T09:30:40.330Z,247
2018-06-11T09:31:41.729Z,253
2018-06-11T09:32:43.136Z,258
2018-06-11T09:33:44.535Z,270
2018-06-11T09:34:45.951Z,286
2018-06-11T09:35:47.351Z,303
2018-06-11T09:36:48.748Z,309
2018-06-11T09:37:50.153Z,315
2018-06-11T09:38:51.544Z,315
2018-06-11T09:39:52.955Z,331
2018-06-11T09:40:54.359Z,343
2018-06-11T09:41:55.757Z,354
2018-06-11T09:42:57.160Z,360
2018-06-11T09:43:58.741Z,365
2018-06-11T09:44:59.955Z,354
2018-06-11T09:46:01.356Z,331
2018-06-11T09:47:02.758Z,326
2018-06-11T09:48:04.160Z,326
2018-06-11T09:49:05.573Z,337
2018-06-11T09:50:06.963Z,337
2018-06-11T09:51:08.362Z,348
2018-06-11T09:52:09.764Z,348
2018-06-11T09:53:11.161Z,331
2018-06-11T09:54:12.562Z,354
2018-06-11T09:55:13.961Z,315
2018-06-11T09:56:15.360Z,315
2018-06-11T09:57:16.780Z,326
2018-06-11T09:58:18.201Z,303
2018-06-11T09:59:19.605Z,303
2018-06-11T10:00:21.010Z,315
2018-06-11T10:01:22.420Z,331
2018-06-11T10:02:23.823Z,343
2018-06-11T10:03:25.251Z,326
2018-06-11T10:04:26.633Z,326
2018-06-11T10:05:28.043Z,303
2018-06-11T10:06:29.450Z,286
2018-06-11T10:07:30.854Z,315
2018-06-11T10:08:32.250Z,275
2018-06-11T10:09:33.653Z,270
2018-06-11T10:10:35.057Z,281
2018-06-11T10:11:36.460Z,275
2018-06-11T10:12:37.858Z,281
2018-06-11T10:13:39.284Z,286
2018-06-11T10:14:40.662Z,303
2018-06-11T10:15:42.062Z,326
2018-06-11T10:16:43.466Z,472
2018-06-11T10:17:44.872Z,478
2018-06-11T10:18:46.272Z,483
2018-06-11T10:19:47.676Z,466
2018-06-11T10:20:49.073Z,444
2018-06-11T10:21:50.473Z,461
2018-06-11T10:22:51.875Z,500
2018-06-11T10:23:53.279Z,461
2018-06-11T10:24:54.730Z,472
2018-06-11T10:25:56.088Z,450
2018-06-11T10:26:57.487Z,466
2018-06-11T10:27:58.885Z,478
2018-06-11T10:29:00.285Z,450
2018-06-11T10:30:01.692Z,416
2018-06-11T10:31:03.087Z,478
2018-06-11T10:32:04.487Z,489
2018-06-11T10:33:05.892Z,511
2018-06-11T10:34:07.295Z,511
2018-06-11T10:35:08.697Z,495
2018-06-11T10:36:10.099Z,489
2018-06-11T10:37:11.507Z,495
2018-06-11T10:38:12.901Z,511
2018-06-11T10:39:14.355Z,500
2018-06-11T10:40:15.709Z,489
2018-06-11T10:41:17.106Z,511
2018-06-11T10:42:18.511Z,511
2018-06-11T10:43:19.912Z,528
2018-06-11T10:44:21.315Z,523
2018-06-11T10:45:22.718Z,523
2018-06-11T10:46:24.120Z,517
2018-06-11T10:47:25.562Z,511
2018-06-11T10:48:26.982Z,534
2018-06-11T10:49:28.384Z,545
2018-06-11T10:50:29.789Z,528
2018-06-11T10:51:31.190Z,517
2018-06-11T10:52:32.593Z,517
2018-06-11T10:53:34.002Z,517
2018-06-11T10:54:35.426Z,528
2018-06-11T10:55:36.867Z,506
2018-06-11T10:56:38.293Z,506
2018-06-11T10:57:39.702Z,517
2018-06-11T10:58:41.096Z,517
2018-06-11T10:59:42.500Z,489
2018-06-11T11:00:43.913Z,511
2018-06-11T11:01:45.318Z,500
2018-06-11T11:02:46.719Z,478
2018-06-11T11:03:48.160Z,528
2018-06-11T11:04:49.530Z,517
2018-06-11T11:05:50.933Z,528
2018-06-11T11:06:52.342Z,596
2018-06-11T11:07:53.763Z,601
2018-06-11T11:08:55.250Z,635
2018-06-11T11:09:56.656Z,590
2018-06-11T11:10:58.062Z,680
2018-06-11T11:11:59.465Z,714
2018-06-11T11:13:00.897Z,714
2018-06-11T11:14:02.285Z,725
2018-06-11T11:15:03.722Z,753
2018-06-11T11:16:05.121Z,810
2018-06-11T11:17:06.525Z,810
2018-06-11T11:18:07.927Z,793
2018-06-11T11:19:09.331Z,748
2018-06-11T11:20:10.735Z,804
2018-06-11T11:21:12.144Z,838
2018-06-11T11:22:13.546Z,883
2018-06-11T11:23:14.954Z,916
2018-06-11T11:24:16.357Z,939
2018-06-11T11:25:17.759Z,939
2018-06-11T11:26:19.162Z,956
2018-06-11T11:27:20.569Z,978
2018-06-11T11:28:21.971Z,995
2018-06-11T11:29:23.383Z,978
2018-06-11T11:30:24.830Z,984
2018-06-11T11:31:26.230Z,984
2018-06-11T11:32:27.633Z,961
2018-06-11T11:33:29.036Z,973
2018-06-11T11:34:30.447Z,950
2018-06-11T11:35:31.853Z,990
2018-06-11T11:36:33.260Z,978
2018-06-11T11:37:34.676Z,1035
2018-06-11T11:38:36.078Z,1063
2018-06-11T11:39:37.491Z,1035
2018-06-11T11:40:38.905Z,1018
2018-06-11T11:41:40.314Z,1006
2018-06-11T11:42:41.717Z,1029
2018-06-11T11:43:43.125Z,1035
2018-06-11T11:44:44.537Z,1018
2018-06-11T11:45:45.942Z,1040
2018-06-11T11:46:47.346Z,1023
2018-06-11T11:47:48.754Z,1051
2018-06-11T11:48:50.160Z,1029
2018-06-11T11:49:51.571Z,1018
2018-06-11T11:50:52.985Z,1057
2018-06-11T11:51:54.393Z,1057
2018-06-11T11:52:55.797Z,1080
2018-06-11T11:53:57.207Z,1068
2018-06-11T11:54:58.609Z,776
2018-06-11T11:56:00.018Z,641
2018-06-11T11:57:01.436Z,596
2018-06-11T11:58:02.847Z,658
2018-06-11T11:59:04.254Z,540
2018-06-11T12:00:05.658Z,517
2018-06-11T12:01:07.065Z,618
2018-06-11T12:02:08.467Z,596
2018-06-11T12:03:09.874Z,579
2018-06-11T12:04:11.280Z,511
2018-06-11T12:05:12.683Z,495
2018-06-11T12:06:14.099Z,438
2018-06-11T12:07:15.501Z,455
2018-06-11T12:08:16.906Z,461
2018-06-11T12:09:18.309Z,517
2018-06-11T12:10:19.714Z,528
2018-06-11T12:11:21.118Z,416
2018-06-11T12:12:22.522Z,405
2018-06-11T12:13:24.030Z,399
2018-06-11T12:14:25.432Z,376
2018-06-11T12:15:26.836Z,371
2018-06-11T12:16:28.235Z,382
2018-06-11T12:17:29.639Z,376
2018-06-11T12:18:31.042Z,354
2018-06-11T12:19:32.444Z,348
2018-06-11T12:20:33.850Z,348
2018-06-11T12:21:35.254Z,365
2018-06-11T12:22:36.706Z,399
2018-06-11T12:23:38.121Z,450
2018-06-11T12:24:39.521Z,573
2018-06-11T12:25:40.924Z,545
2018-06-11T12:26:42.328Z,500
2018-06-11T12:27:43.741Z,500
2018-06-11T12:28:45.179Z,765
2018-06-11T12:29:46.582Z,562
2018-06-11T12:30:47.990Z,731
2018-06-11T12:31:49.390Z,596
2018-06-11T12:32:50.793Z,652
2018-06-11T12:33:52.199Z,450
2018-06-11T12:34:53.606Z,455
2018-06-11T12:35:55.008Z,500
2018-06-11T12:36:56.414Z,455
2018-06-11T12:37:57.818Z,444
2018-06-11T12:38:59.223Z,500
2018-06-11T12:40:00.631Z,534
2018-06-11T12:41:02.041Z,613
2018-06-11T12:42:03.448Z,556
2018-06-11T12:43:04.850Z,568
2018-06-11T12:44:06.250Z,624
2018-06-11T12:45:07.655Z,624
2018-06-11T12:46:09.055Z,585
2018-06-11T12:47:10.464Z,534
2018-06-11T12:48:11.863Z,534
2018-06-11T12:49:13.275Z,523
2018-06-11T12:50:14.682Z,500
2018-06-11T12:51:16.084Z,472
2018-06-11T12:52:17.489Z,466
2018-06-11T12:53:18.892Z,444
2018-06-11T12:54:20.297Z,421
2018-06-11T12:55:21.705Z,416
2018-06-11T12:56:23.191Z,421
2018-06-11T12:57:24.567Z,427
2018-06-11T12:58:25.972Z,433
2018-06-11T12:59:27.369Z,444
2018-06-11T13:00:28.775Z,427
2018-06-11T13:01:30.218Z,399
2018-06-11T13:02:31.581Z,376
2018-06-11T13:03:32.983Z,382
2018-06-11T13:04:34.388Z,399
2018-06-11T13:05:35.788Z,416
2018-06-11T13:06:37.194Z,438
2018-06-11T13:07:38.600Z,450
2018-06-11T13:08:39.996Z,461
2018-06-11T13:09:41.399Z,461
2018-06-11T13:10:42.806Z,444
2018-06-11T13:11:44.204Z,427
2018-06-11T13:12:45.604Z,388
2018-06-11T13:13:47.006Z,360
2018-06-11T13:14:48.409Z,326
2018-06-11T13:15:49.810Z,315
2018-06-11T13:16:51.236Z,298
2018-06-11T13:17:52.640Z,286
2018-06-11T13:18:54.040Z,275
2018-06-11T13:19:55.436Z,270
2018-06-11T13:20:56.841Z,264
2018-06-11T13:21:58.242Z,253
2018-06-11T13:22:59.646Z,247
2018-06-11T13:24:01.046Z,241
2018-06-11T13:25:02.450Z,230
2018-06-11T13:26:03.851Z,219
2018-06-11T13:27:05.251Z,213
2018-06-11T13:28:06.653Z,202
2018-06-11T13:29:08.058Z,202
2018-06-11T13:30:09.474Z,191
2018-06-11T13:31:10.881Z,191
2018-06-11T13:32:12.282Z,191
2018-06-11T13:33:13.681Z,185
2018-06-11T13:34:15.083Z,185
2018-06-11T13:35:16.520Z,185
2018-06-11T13:36:17.922Z,185
2018-06-11T13:37:19.327Z,185
2018-06-11T13:38:20.728Z,185
2018-06-11T13:39:22.141Z,185
2018-06-11T13:40:23.576Z,185
2018-06-11T13:41:24.975Z,185
2018-06-11T13:42:26.375Z,185
2018-06-11T13:43:27.776Z,185
2018-06-11T13:44:29.179Z,180
2018-06-11T13:45:30.580Z,180
2018-06-11T13:46:31.981Z,180
2018-06-11T13:47:33.382Z,180
2018-06-11T13:48:34.781Z,180
2018-06-11T13:49:36.181Z,174
2018-06-11T13:50:37.579Z,168
2018-06-11T13:51:38.985Z,168
2018-06-11T13:52:40.390Z,163
2018-06-11T13:53:41.788Z,157
2018-06-11T13:54:43.185Z,157
2018-06-11T13:55:44.586Z,151
2018-06-11T13:56:45.992Z,151
2018-06-11T13:57:47.385Z,146
2018-06-11T13:58:48.833Z,146
2018-06-11T13:59:50.188Z,140
2018-06-11T14:00:51.593Z,140
2018-06-11T14:01:52.993Z,140
2018-06-11T14:02:54.394Z,140
2018-06-11T14:03:55.792Z,146
2018-06-11T14:04:57.192Z,146
2018-06-11T14:05:58.593Z,146
2018-06-11T14:06:59.995Z,146
2018-06-11T14:08:01.395Z,146
2018-06-11T14:09:02.796Z,151
2018-06-11T14:10:04.199Z,151
2018-06-11T14:11:05.595Z,151
2018-06-11T14:12:06.995Z,157
2018-06-11T14:13:08.398Z,157
2018-06-11T14:14:09.804Z,163
2018-06-11T14:15:11.202Z,168
2018-06-11T14:16:12.600Z,168
2018-06-11T14:17:14.000Z,174
2018-06-11T14:18:15.400Z,174
2018-06-11T14:19:16.810Z,174
2018-06-11T14:20:18.205Z,174
2018-06-11T14:21:19.601Z,168
2018-06-11T14:22:21.002Z,168
2018-06-11T14:23:22.408Z,168
2018-06-11T14:24:23.818Z,163
2018-06-11T14:25:25.212Z,163